sensor_id;sensor_type;location;lat;lon;timestamp;P1;durP1;ratioP1;P2;durP2;ratioP2
19951;SDS011;10137;49.406;19.484;2024-03-23T00:53:50;16.10;;;8.77;;
19951;SDS011;10137;49.406;19.484;2024-03-23T00:56:17;14.17;;;8.80;;
19951;SDS011;10137;49.406;19.484;2024-03-23T00:58:42;16.50;;;8.27;;
19951;SDS011;10137;49.406;19.484;2024-03-23T01:01:09;13.27;;;7.80;;
19951;SDS011;10137;49.406;19.484;2024-03-23T01:03:35;11.33;;;6.90;;
19951;SDS011;10137;49.406;19.484;2024-03-23T01:06:02;13.17;;;6.93;;
19951;SDS011;10137;49.406;19.484;2024-03-23T01:08:28;10.80;;;6.57;;
19951;SDS011;10137;49.406;19.484;2024-03-23T01:10:55;10.27;;;6.80;;
19951;SDS011;10137;49.406;19.484;2024-03-23T01:13:22;12.37;;;6.77;;
19951;SDS011;10137;49.406;19.484;2024-03-23T01:15:51;10.13;;;6.80;;
19951;SDS011;10137;49.406;19.484;2024-03-23T01:18:56;11.00;;;6.77;;
19951;SDS011;10137;49.406;19.484;2024-03-23T01:21:22;10.40;;;6.93;;
19951;SDS011;10137;49.406;19.484;2024-03-23T01:23:48;9.77;;;6.53;;
19951;SDS011;10137;49.406;19.484;2024-03-23T01:26:15;8.97;;;6.67;;
19951;SDS011;10137;49.406;19.484;2024-03-23T01:28:41;10.10;;;6.87;;
19951;SDS011;10137;49.406;19.484;2024-03-23T01:31:07;11.70;;;7.77;;
19951;SDS011;10137;49.406;19.484;2024-03-23T01:33:33;10.27;;;6.73;;
19951;SDS011;10137;49.406;19.484;2024-03-23T01:36:00;10.67;;;6.90;;
19951;SDS011;10137;49.406;19.484;2024-03-23T01:38:26;11.87;;;7.40;;
19951;SDS011;10137;49.406;19.484;2024-03-23T01:40:58;10.10;;;6.60;;
19951;SDS011;10137;49.406;19.484;2024-03-23T01:43:24;9.77;;;6.80;;
19951;SDS011;10137;49.406;19.484;2024-03-23T01:45:51;11.20;;;6.83;;
19951;SDS011;10137;49.406;19.484;2024-03-23T01:48:18;13.97;;;7.57;;
19951;SDS011;10137;49.406;19.484;2024-03-23T01:50:46;14.73;;;8.83;;
19951;SDS011;10137;49.406;19.484;2024-03-23T01:53:13;12.77;;;7.60;;
19951;SDS011;10137;49.406;19.484;2024-03-23T01:55:42;12.40;;;8.03;;
19951;SDS011;10137;49.406;19.484;2024-03-23T01:58:08;11.93;;;7.37;;
19951;SDS011;10137;49.406;19.484;2024-03-23T02:00:35;12.97;;;7.70;;
19951;SDS011;10137;49.406;19.484;2024-03-23T02:03:01;11.87;;;7.73;;
19951;SDS011;10137;49.406;19.484;2024-03-23T02:05:27;14.73;;;8.27;;
19951;SDS011;10137;49.406;19.484;2024-03-23T02:07:53;14.53;;;8.10;;
19951;SDS011;10137;49.406;19.484;2024-03-23T02:10:20;14.77;;;8.53;;
19951;SDS011;10137;49.406;19.484;2024-03-23T02:12:46;12.93;;;7.70;;
19951;SDS011;10137;49.406;19.484;2024-03-23T02:15:12;17.13;;;8.30;;
19951;SDS011;10137;49.406;19.484;2024-03-23T02:17:38;12.50;;;8.10;;
19951;SDS011;10137;49.406;19.484;2024-03-23T02:20:05;14.43;;;8.13;;
19951;SDS011;10137;49.406;19.484;2024-03-23T02:22:37;13.10;;;7.77;;
19951;SDS011;10137;49.406;19.484;2024-03-23T02:25:05;12.53;;;7.57;;
19951;SDS011;10137;49.406;19.484;2024-03-23T02:27:31;12.87;;;8.10;;
19951;SDS011;10137;49.406;19.484;2024-03-23T02:29:59;14.37;;;8.00;;
19951;SDS011;10137;49.406;19.484;2024-03-23T02:32:25;12.60;;;7.33;;
19951;SDS011;10137;49.406;19.484;2024-03-23T02:34:52;12.03;;;7.40;;
19951;SDS011;10137;49.406;19.484;2024-03-23T02:37:17;11.30;;;7.77;;
19951;SDS011;10137;49.406;19.484;2024-03-23T02:39:44;12.23;;;7.57;;
19951;SDS011;10137;49.406;19.484;2024-03-23T02:42:10;11.07;;;7.20;;
19951;SDS011;10137;49.406;19.484;2024-03-23T02:44:36;11.90;;;7.50;;
19951;SDS011;10137;49.406;19.484;2024-03-23T02:47:02;12.10;;;7.53;;
19951;SDS011;10137;49.406;19.484;2024-03-23T02:49:29;12.23;;;7.57;;
19951;SDS011;10137;49.406;19.484;2024-03-23T02:51:54;14.00;;;7.90;;
19951;SDS011;10137;49.406;19.484;2024-03-23T02:54:21;12.00;;;7.77;;
19951;SDS011;10137;49.406;19.484;2024-03-23T02:56:47;12.30;;;7.17;;
19951;SDS011;10137;49.406;19.484;2024-03-23T02:59:13;16.20;;;7.77;;
19951;SDS011;10137;49.406;19.484;2024-03-23T03:01:39;15.70;;;7.60;;
19951;SDS011;10137;49.406;19.484;2024-03-23T03:04:06;11.73;;;6.97;;
19951;SDS011;10137;49.406;19.484;2024-03-23T03:06:31;12.10;;;7.53;;
19951;SDS011;10137;49.406;19.484;2024-03-23T03:08:58;12.37;;;7.90;;
19951;SDS011;10137;49.406;19.484;2024-03-23T03:11:24;11.63;;;7.43;;
19951;SDS011;10137;49.406;19.484;2024-03-23T03:13:50;11.90;;;7.17;;
19951;SDS011;10137;49.406;19.484;2024-03-23T03:16:16;11.27;;;7.40;;
19951;SDS011;10137;49.406;19.484;2024-03-23T03:18:43;11.20;;;7.30;;
19951;SDS011;10137;49.406;19.484;2024-03-23T03:21:11;11.17;;;6.73;;
19951;SDS011;10137;49.406;19.484;2024-03-23T03:23:38;12.83;;;7.77;;
19951;SDS011;10137;49.406;19.484;2024-03-23T03:26:04;12.47;;;7.60;;
19951;SDS011;10137;49.406;19.484;2024-03-23T03:28:31;12.13;;;6.83;;
19951;SDS011;10137;49.406;19.484;2024-03-23T03:30:58;15.63;;;7.73;;
19951;SDS011;10137;49.406;19.484;2024-03-23T03:33:25;12.73;;;7.70;;
19951;SDS011;10137;49.406;19.484;2024-03-23T03:35:52;12.00;;;7.30;;
19951;SDS011;10137;49.406;19.484;2024-03-23T03:38:19;11.60;;;7.17;;
19951;SDS011;10137;49.406;19.484;2024-03-23T03:40:45;12.57;;;7.20;;
19951;SDS011;10137;49.406;19.484;2024-03-23T03:43:11;14.80;;;7.10;;
19951;SDS011;10137;49.406;19.484;2024-03-23T03:45:37;13.10;;;7.47;;
19951;SDS011;10137;49.406;19.484;2024-03-23T03:48:04;12.30;;;7.20;;
19951;SDS011;10137;49.406;19.484;2024-03-23T03:50:30;11.83;;;7.47;;
19951;SDS011;10137;49.406;19.484;2024-03-23T03:52:56;12.30;;;7.47;;
19951;SDS011;10137;49.406;19.484;2024-03-23T03:55:22;12.00;;;6.80;;
19951;SDS011;10137;49.406;19.484;2024-03-23T03:57:49;12.20;;;7.00;;
19951;SDS011;10137;49.406;19.484;2024-03-23T04:00:14;12.60;;;6.97;;
19951;SDS011;10137;49.406;19.484;2024-03-23T04:02:41;11.50;;;6.73;;
19951;SDS011;10137;49.406;19.484;2024-03-23T04:05:07;13.17;;;7.17;;
19951;SDS011;10137;49.406;19.484;2024-03-23T04:07:34;12.40;;;7.03;;
19951;SDS011;10137;49.406;19.484;2024-03-23T04:09:59;12.40;;;6.73;;
19951;SDS011;10137;49.406;19.484;2024-03-23T04:12:26;13.23;;;7.33;;
19951;SDS011;10137;49.406;19.484;2024-03-23T04:14:52;12.27;;;6.87;;
19951;SDS011;10137;49.406;19.484;2024-03-23T04:17:19;14.73;;;7.43;;
19951;SDS011;10137;49.406;19.484;2024-03-23T04:19:44;10.53;;;7.13;;
19951;SDS011;10137;49.406;19.484;2024-03-23T04:22:12;14.77;;;7.03;;
19951;SDS011;10137;49.406;19.484;2024-03-23T04:24:37;13.87;;;7.67;;
19951;SDS011;10137;49.406;19.484;2024-03-23T04:27:04;11.20;;;7.40;;
19951;SDS011;10137;49.406;19.484;2024-03-23T04:29:30;11.40;;;6.73;;
19951;SDS011;10137;49.406;19.484;2024-03-23T04:31:57;10.53;;;6.90;;
19951;SDS011;10137;49.406;19.484;2024-03-23T04:34:22;15.03;;;7.03;;
19951;SDS011;10137;49.406;19.484;2024-03-23T04:36:49;12.67;;;6.87;;
19951;SDS011;10137;49.406;19.484;2024-03-23T04:39:15;11.70;;;6.90;;
19951;SDS011;10137;49.406;19.484;2024-03-23T04:41:42;11.73;;;6.50;;
19951;SDS011;10137;49.406;19.484;2024-03-23T04:44:09;10.90;;;6.80;;
19951;SDS011;10137;49.406;19.484;2024-03-23T04:46:35;10.57;;;6.57;;
19951;SDS011;10137;49.406;19.484;2024-03-23T04:49:01;12.50;;;6.57;;
19951;SDS011;10137;49.406;19.484;2024-03-23T04:51:34;10.97;;;6.87;;
19951;SDS011;10137;49.406;19.484;2024-03-23T04:54:02;11.57;;;7.20;;
19951;SDS011;10137;49.406;19.484;2024-03-23T04:56:29;12.43;;;7.00;;
19951;SDS011;10137;49.406;19.484;2024-03-23T04:58:56;11.20;;;6.90;;
19951;SDS011;10137;49.406;19.484;2024-03-23T05:01:26;12.23;;;6.90;;
19951;SDS011;10137;49.406;19.484;2024-03-23T05:03:53;13.80;;;6.80;;
19951;SDS011;10137;49.406;19.484;2024-03-23T05:06:18;10.33;;;6.97;;
19951;SDS011;10137;49.406;19.484;2024-03-23T05:08:45;10.40;;;6.90;;
19951;SDS011;10137;49.406;19.484;2024-03-23T05:11:11;11.30;;;6.63;;
19951;SDS011;10137;49.406;19.484;2024-03-23T05:13:37;12.00;;;7.17;;
19951;SDS011;10137;49.406;19.484;2024-03-23T05:16:03;10.87;;;6.63;;
19951;SDS011;10137;49.406;19.484;2024-03-23T05:18:30;11.47;;;6.80;;
19951;SDS011;10137;49.406;19.484;2024-03-23T05:20:57;8.87;;;6.10;;
19951;SDS011;10137;49.406;19.484;2024-03-23T05:23:24;8.13;;;5.97;;
19951;SDS011;10137;49.406;19.484;2024-03-23T05:25:51;9.57;;;6.20;;
19951;SDS011;10137;49.406;19.484;2024-03-23T05:28:18;11.70;;;6.70;;
19951;SDS011;10137;49.406;19.484;2024-03-23T05:30:44;9.90;;;6.43;;
19951;SDS011;10137;49.406;19.484;2024-03-23T05:33:16;12.43;;;6.57;;
19951;SDS011;10137;49.406;19.484;2024-03-23T05:35:42;14.73;;;6.47;;
19951;SDS011;10137;49.406;19.484;2024-03-23T05:38:09;10.07;;;5.70;;
19951;SDS011;10137;49.406;19.484;2024-03-23T05:40:34;9.73;;;5.37;;
19951;SDS011;10137;49.406;19.484;2024-03-23T05:43:05;11.80;;;5.77;;
19951;SDS011;10137;49.406;19.484;2024-03-23T05:45:31;8.10;;;5.63;;
19951;SDS011;10137;49.406;19.484;2024-03-23T05:47:58;8.80;;;5.80;;
19951;SDS011;10137;49.406;19.484;2024-03-23T05:50:24;13.97;;;6.30;;
19951;SDS011;10137;49.406;19.484;2024-03-23T05:52:51;8.73;;;5.87;;
19951;SDS011;10137;49.406;19.484;2024-03-23T05:55:16;10.30;;;6.30;;
19951;SDS011;10137;49.406;19.484;2024-03-23T05:57:43;10.33;;;6.50;;
19951;SDS011;10137;49.406;19.484;2024-03-23T06:00:10;11.70;;;6.83;;
19951;SDS011;10137;49.406;19.484;2024-03-23T06:02:40;12.27;;;6.87;;
19951;SDS011;10137;49.406;19.484;2024-03-23T06:05:09;8.83;;;6.70;;
19951;SDS011;10137;49.406;19.484;2024-03-23T06:07:36;11.50;;;6.63;;
19951;SDS011;10137;49.406;19.484;2024-03-23T06:10:02;10.40;;;5.93;;
19951;SDS011;10137;49.406;19.484;2024-03-23T06:12:30;14.70;;;6.20;;
19951;SDS011;10137;49.406;19.484;2024-03-23T06:14:56;10.73;;;6.43;;
19951;SDS011;10137;49.406;19.484;2024-03-23T06:17:23;10.07;;;5.67;;
19951;SDS011;10137;49.406;19.484;2024-03-23T06:19:48;9.33;;;6.17;;
19951;SDS011;10137;49.406;19.484;2024-03-23T06:22:15;12.37;;;6.30;;
19951;SDS011;10137;49.406;19.484;2024-03-23T06:24:41;10.93;;;5.97;;
19951;SDS011;10137;49.406;19.484;2024-03-23T06:27:08;10.73;;;5.73;;
19951;SDS011;10137;49.406;19.484;2024-03-23T06:29:33;10.70;;;6.57;;
19951;SDS011;10137;49.406;19.484;2024-03-23T06:32:01;9.17;;;6.30;;
19951;SDS011;10137;49.406;19.484;2024-03-23T06:34:28;15.83;;;7.17;;
19951;SDS011;10137;49.406;19.484;2024-03-23T06:36:55;9.47;;;6.47;;
19951;SDS011;10137;49.406;19.484;2024-03-23T06:39:20;10.57;;;6.87;;
19951;SDS011;10137;49.406;19.484;2024-03-23T06:41:53;13.27;;;6.97;;
19951;SDS011;10137;49.406;19.484;2024-03-23T06:44:20;12.33;;;6.80;;
19951;SDS011;10137;49.406;19.484;2024-03-23T06:46:47;11.67;;;6.90;;
19951;SDS011;10137;49.406;19.484;2024-03-23T06:49:13;10.40;;;6.70;;
19951;SDS011;10137;49.406;19.484;2024-03-23T06:51:40;15.83;;;7.63;;
19951;SDS011;10137;49.406;19.484;2024-03-23T06:54:06;12.80;;;6.93;;
19951;SDS011;10137;49.406;19.484;2024-03-23T06:56:33;12.37;;;6.80;;
19951;SDS011;10137;49.406;19.484;2024-03-23T06:58:59;11.37;;;6.30;;
19951;SDS011;10137;49.406;19.484;2024-03-23T07:01:25;11.17;;;6.37;;
19951;SDS011;10137;49.406;19.484;2024-03-23T07:03:51;10.73;;;6.33;;
19951;SDS011;10137;49.406;19.484;2024-03-23T07:06:18;8.53;;;5.73;;
19951;SDS011;10137;49.406;19.484;2024-03-23T07:08:43;12.97;;;6.30;;
19951;SDS011;10137;49.406;19.484;2024-03-23T07:11:10;9.37;;;6.17;;
19951;SDS011;10137;49.406;19.484;2024-03-23T07:13:36;8.00;;;5.27;;
19951;SDS011;10137;49.406;19.484;2024-03-23T07:16:02;13.77;;;5.37;;
19951;SDS011;10137;49.406;19.484;2024-03-23T07:18:28;8.00;;;4.90;;
19951;SDS011;10137;49.406;19.484;2024-03-23T07:20:55;9.37;;;5.20;;
19951;SDS011;10137;49.406;19.484;2024-03-23T07:23:22;7.40;;;4.63;;
19951;SDS011;10137;49.406;19.484;2024-03-23T07:25:58;8.37;;;4.83;;
19951;SDS011;10137;49.406;19.484;2024-03-23T07:28:25;11.40;;;5.20;;
19951;SDS011;10137;49.406;19.484;2024-03-23T07:31:05;9.13;;;5.40;;
19951;SDS011;10137;49.406;19.484;2024-03-23T07:33:31;10.60;;;5.60;;
19951;SDS011;10137;49.406;19.484;2024-03-23T07:35:59;8.67;;;5.37;;
19951;SDS011;10137;49.406;19.484;2024-03-23T07:38:26;11.13;;;6.50;;
19951;SDS011;10137;49.406;19.484;2024-03-23T07:41:06;9.03;;;5.77;;
19951;SDS011;10137;49.406;19.484;2024-03-23T07:43:32;9.17;;;5.77;;
19951;SDS011;10137;49.406;19.484;2024-03-23T07:45:59;8.50;;;5.50;;
19951;SDS011;10137;49.406;19.484;2024-03-23T07:48:25;8.13;;;5.57;;
19951;SDS011;10137;49.406;19.484;2024-03-23T07:51:13;8.03;;;5.80;;
19951;SDS011;10137;49.406;19.484;2024-03-23T07:53:44;11.40;;;6.00;;
19951;SDS011;10137;49.406;19.484;2024-03-23T07:56:11;7.73;;;5.70;;
19951;SDS011;10137;49.406;19.484;2024-03-23T07:58:37;7.30;;;5.27;;
19951;SDS011;10137;49.406;19.484;2024-03-23T08:01:05;10.07;;;5.90;;
19951;SDS011;10137;49.406;19.484;2024-03-23T08:03:33;8.47;;;5.53;;
19951;SDS011;10137;49.406;19.484;2024-03-23T08:06:21;8.00;;;5.80;;
19951;SDS011;10137;49.406;19.484;2024-03-23T08:08:47;8.63;;;6.07;;
19951;SDS011;10137;49.406;19.484;2024-03-23T08:11:16;11.10;;;5.90;;
19951;SDS011;10137;49.406;19.484;2024-03-23T08:13:42;7.77;;;5.70;;
19951;SDS011;10137;49.406;19.484;2024-03-23T08:16:11;11.90;;;6.13;;
19951;SDS011;10137;49.406;19.484;2024-03-23T08:18:38;11.03;;;5.63;;
19951;SDS011;10137;49.406;19.484;2024-03-23T08:21:05;9.17;;;5.40;;
19951;SDS011;10137;49.406;19.484;2024-03-23T08:23:32;10.70;;;5.23;;
19951;SDS011;10137;49.406;19.484;2024-03-23T08:26:01;8.07;;;4.80;;
19951;SDS011;10137;49.406;19.484;2024-03-23T08:28:28;9.13;;;5.10;;
19951;SDS011;10137;49.406;19.484;2024-03-23T08:30:55;9.13;;;4.93;;
19951;SDS011;10137;49.406;19.484;2024-03-23T08:33:22;9.20;;;4.87;;
19951;SDS011;10137;49.406;19.484;2024-03-23T08:35:56;11.53;;;4.63;;
19951;SDS011;10137;49.406;19.484;2024-03-23T08:38:23;8.77;;;4.97;;
19951;SDS011;10137;49.406;19.484;2024-03-23T08:40:59;8.90;;;4.60;;
19951;SDS011;10137;49.406;19.484;2024-03-23T08:43:27;8.87;;;4.33;;
19951;SDS011;10137;49.406;19.484;2024-03-23T08:46:02;11.13;;;5.13;;
19951;SDS011;10137;49.406;19.484;2024-03-23T08:48:36;7.40;;;5.07;;
19951;SDS011;10137;49.406;19.484;2024-03-23T08:51:07;10.73;;;4.60;;
19951;SDS011;10137;49.406;19.484;2024-03-23T08:53:34;11.83;;;4.60;;
19951;SDS011;10137;49.406;19.484;2024-03-23T08:56:02;8.30;;;4.70;;
19951;SDS011;10137;49.406;19.484;2024-03-23T08:58:29;6.03;;;4.30;;
19951;SDS011;10137;49.406;19.484;2024-03-23T09:00:57;6.37;;;4.33;;
19951;SDS011;10137;49.406;19.484;2024-03-23T09:03:32;6.03;;;3.87;;
19951;SDS011;10137;49.406;19.484;2024-03-23T09:06:00;9.53;;;4.10;;
19951;SDS011;10137;49.406;19.484;2024-03-23T09:08:26;7.00;;;3.90;;
19951;SDS011;10137;49.406;19.484;2024-03-23T09:10:52;9.60;;;4.40;;
19951;SDS011;10137;49.406;19.484;2024-03-23T09:13:18;7.47;;;4.33;;
19951;SDS011;10137;49.406;19.484;2024-03-23T09:15:49;8.97;;;4.30;;
19951;SDS011;10137;49.406;19.484;2024-03-23T09:18:16;7.90;;;3.90;;
19951;SDS011;10137;49.406;19.484;2024-03-23T09:20:43;6.43;;;4.17;;
19951;SDS011;10137;49.406;19.484;2024-03-23T09:23:09;5.73;;;4.10;;
19951;SDS011;10137;49.406;19.484;2024-03-23T09:25:42;6.20;;;4.27;;
19951;SDS011;10137;49.406;19.484;2024-03-23T09:28:07;11.43;;;5.73;;
19951;SDS011;10137;49.406;19.484;2024-03-23T09:30:35;11.97;;;5.83;;
19951;SDS011;10137;49.406;19.484;2024-03-23T09:33:02;10.70;;;5.40;;
19951;SDS011;10137;49.406;19.484;2024-03-23T09:35:29;9.47;;;4.37;;
19951;SDS011;10137;49.406;19.484;2024-03-23T09:37:54;8.53;;;4.47;;
19951;SDS011;10137;49.406;19.484;2024-03-23T09:40:22;11.33;;;4.00;;
19951;SDS011;10137;49.406;19.484;2024-03-23T09:42:49;7.63;;;3.67;;
19951;SDS011;10137;49.406;19.484;2024-03-23T09:45:17;6.67;;;3.60;;
19951;SDS011;10137;49.406;19.484;2024-03-23T09:47:46;8.83;;;4.13;;
19951;SDS011;10137;49.406;19.484;2024-03-23T09:50:13;6.47;;;3.40;;
19951;SDS011;10137;49.406;19.484;2024-03-23T09:52:39;5.10;;;3.40;;
19951;SDS011;10137;49.406;19.484;2024-03-23T09:55:08;4.93;;;3.33;;
19951;SDS011;10137;49.406;19.484;2024-03-23T09:57:34;6.63;;;3.70;;
19951;SDS011;10137;49.406;19.484;2024-03-23T10:00:01;7.70;;;3.40;;
19951;SDS011;10137;49.406;19.484;2024-03-23T10:02:27;7.13;;;3.27;;
19951;SDS011;10137;49.406;19.484;2024-03-23T10:04:55;6.03;;;3.50;;
19951;SDS011;10137;49.406;19.484;2024-03-23T10:07:22;5.43;;;3.50;;
19951;SDS011;10137;49.406;19.484;2024-03-23T10:09:49;4.87;;;3.23;;
19951;SDS011;10137;49.406;19.484;2024-03-23T10:12:17;6.80;;;3.50;;
19951;SDS011;10137;49.406;19.484;2024-03-23T10:14:45;9.50;;;3.47;;
19951;SDS011;10137;49.406;19.484;2024-03-23T10:17:15;6.60;;;3.40;;
19951;SDS011;10137;49.406;19.484;2024-03-23T10:19:44;5.87;;;3.23;;
19951;SDS011;10137;49.406;19.484;2024-03-23T10:22:15;4.60;;;3.10;;
19951;SDS011;10137;49.406;19.484;2024-03-23T10:24:45;4.37;;;2.47;;
19951;SDS011;10137;49.406;19.484;2024-03-23T10:27:21;7.47;;;3.17;;
19951;SDS011;10137;49.406;19.484;2024-03-23T10:29:48;5.67;;;3.10;;
19951;SDS011;10137;49.406;19.484;2024-03-23T10:32:15;6.73;;;3.63;;
19951;SDS011;10137;49.406;19.484;2024-03-23T10:34:43;6.90;;;3.20;;
19951;SDS011;10137;49.406;19.484;2024-03-23T10:37:09;6.80;;;3.60;;
19951;SDS011;10137;49.406;19.484;2024-03-23T10:39:37;7.67;;;3.33;;
19951;SDS011;10137;49.406;19.484;2024-03-23T10:42:06;10.47;;;3.60;;
19951;SDS011;10137;49.406;19.484;2024-03-23T10:44:36;9.17;;;3.67;;
19951;SDS011;10137;49.406;19.484;2024-03-23T10:47:03;10.03;;;2.93;;
19951;SDS011;10137;49.406;19.484;2024-03-23T10:49:31;5.03;;;3.07;;
19951;SDS011;10137;49.406;19.484;2024-03-23T10:51:58;5.30;;;2.40;;
19951;SDS011;10137;49.406;19.484;2024-03-23T10:54:26;5.27;;;3.20;;
19951;SDS011;10137;49.406;19.484;2024-03-23T10:56:53;5.63;;;2.80;;
19951;SDS011;10137;49.406;19.484;2024-03-23T10:59:43;6.47;;;2.80;;
19951;SDS011;10137;49.406;19.484;2024-03-23T11:02:18;6.47;;;2.63;;
19951;SDS011;10137;49.406;19.484;2024-03-23T11:04:46;7.70;;;2.57;;
19951;SDS011;10137;49.406;19.484;2024-03-23T11:09:58;3.13;;;2.50;;
19951;SDS011;10137;49.406;19.484;2024-03-23T11:14:56;4.27;;;2.73;;
19951;SDS011;10137;49.406;19.484;2024-03-23T11:17:25;7.13;;;4.07;;
19951;SDS011;10137;49.406;19.484;2024-03-23T11:19:58;6.77;;;3.00;;
19951;SDS011;10137;49.406;19.484;2024-03-23T11:22:38;5.13;;;2.60;;
19951;SDS011;10137;49.406;19.484;2024-03-23T11:27:45;3.50;;;2.60;;
19951;SDS011;10137;49.406;19.484;2024-03-23T11:30:19;5.03;;;2.60;;
19951;SDS011;10137;49.406;19.484;2024-03-23T11:32:47;4.50;;;2.50;;
19951;SDS011;10137;49.406;19.484;2024-03-23T11:35:30;6.23;;;2.70;;
19951;SDS011;10137;49.406;19.484;2024-03-23T11:38:06;6.17;;;2.50;;
19951;SDS011;10137;49.406;19.484;2024-03-23T11:40:39;5.87;;;2.50;;
19951;SDS011;10137;49.406;19.484;2024-03-23T11:43:09;6.90;;;2.60;;
19951;SDS011;10137;49.406;19.484;2024-03-23T11:45:39;10.67;;;2.50;;
19951;SDS011;10137;49.406;19.484;2024-03-23T11:48:16;5.90;;;2.80;;
19951;SDS011;10137;49.406;19.484;2024-03-23T11:50:44;4.27;;;2.43;;
19951;SDS011;10137;49.406;19.484;2024-03-23T11:53:19;5.47;;;2.30;;
19951;SDS011;10137;49.406;19.484;2024-03-23T11:56:05;5.87;;;2.27;;
19951;SDS011;10137;49.406;19.484;2024-03-23T11:58:31;5.43;;;2.83;;
19951;SDS011;10137;49.406;19.484;2024-03-23T12:00:59;3.63;;;2.17;;
19951;SDS011;10137;49.406;19.484;2024-03-23T12:03:27;3.77;;;2.43;;
19951;SDS011;10137;49.406;19.484;2024-03-23T12:05:58;4.97;;;2.30;;
19951;SDS011;10137;49.406;19.484;2024-03-23T12:08:33;4.63;;;2.50;;
19951;SDS011;10137;49.406;19.484;2024-03-23T12:13:40;5.10;;;2.67;;
19951;SDS011;10137;49.406;19.484;2024-03-23T12:18:42;4.23;;;2.93;;
19951;SDS011;10137;49.406;19.484;2024-03-23T12:21:09;4.53;;;2.53;;
19951;SDS011;10137;49.406;19.484;2024-03-23T12:23:35;4.90;;;2.50;;
19951;SDS011;10137;49.406;19.484;2024-03-23T12:26:02;8.60;;;2.80;;
19951;SDS011;10137;49.406;19.484;2024-03-23T12:28:28;4.17;;;2.57;;
19951;SDS011;10137;49.406;19.484;2024-03-23T12:30:55;5.93;;;2.60;;
19951;SDS011;10137;49.406;19.484;2024-03-23T12:33:21;6.70;;;2.90;;
19951;SDS011;10137;49.406;19.484;2024-03-23T12:35:48;4.33;;;2.40;;
19951;SDS011;10137;49.406;19.484;2024-03-23T12:38:15;6.17;;;2.37;;
19951;SDS011;10137;49.406;19.484;2024-03-23T12:40:42;4.60;;;2.70;;
19951;SDS011;10137;49.406;19.484;2024-03-23T12:43:12;3.30;;;2.63;;
19951;SDS011;10137;49.406;19.484;2024-03-23T12:45:39;3.10;;;2.40;;
19951;SDS011;10137;49.406;19.484;2024-03-23T12:48:05;3.80;;;2.30;;
19951;SDS011;10137;49.406;19.484;2024-03-23T12:50:31;2.73;;;2.23;;
19951;SDS011;10137;49.406;19.484;2024-03-23T12:52:57;3.43;;;2.30;;
19951;SDS011;10137;49.406;19.484;2024-03-23T12:55:24;3.80;;;2.50;;
19951;SDS011;10137;49.406;19.484;2024-03-23T12:57:50;4.50;;;2.27;;
19951;SDS011;10137;49.406;19.484;2024-03-23T13:00:16;13.97;;;2.70;;
19951;SDS011;10137;49.406;19.484;2024-03-23T13:02:42;5.63;;;2.30;;
19951;SDS011;10137;49.406;19.484;2024-03-23T13:05:10;4.10;;;2.07;;
19951;SDS011;10137;49.406;19.484;2024-03-23T13:07:36;3.50;;;1.90;;
19951;SDS011;10137;49.406;19.484;2024-03-23T13:10:04;6.57;;;2.00;;
19951;SDS011;10137;49.406;19.484;2024-03-23T13:12:33;5.23;;;2.13;;
19951;SDS011;10137;49.406;19.484;2024-03-23T13:15:00;3.83;;;2.00;;
19951;SDS011;10137;49.406;19.484;2024-03-23T13:17:26;3.50;;;2.47;;
19951;SDS011;10137;49.406;19.484;2024-03-23T13:19:54;4.13;;;2.20;;
19951;SDS011;10137;49.406;19.484;2024-03-23T13:22:20;6.87;;;2.17;;
19951;SDS011;10137;49.406;19.484;2024-03-23T13:24:47;20.00;;;14.50;;
19951;SDS011;10137;49.406;19.484;2024-03-23T13:27:13;3.87;;;2.63;;
19951;SDS011;10137;49.406;19.484;2024-03-23T13:29:39;3.77;;;2.33;;
19951;SDS011;10137;49.406;19.484;2024-03-23T13:32:06;5.70;;;1.93;;
19951;SDS011;10137;49.406;19.484;2024-03-23T13:34:33;2.70;;;1.90;;
19951;SDS011;10137;49.406;19.484;2024-03-23T13:37:00;6.60;;;2.20;;
19951;SDS011;10137;49.406;19.484;2024-03-23T13:39:26;2.10;;;1.90;;
19951;SDS011;10137;49.406;19.484;2024-03-23T13:41:52;3.87;;;1.87;;
19951;SDS011;10137;49.406;19.484;2024-03-23T13:44:20;7.27;;;2.37;;
19951;SDS011;10137;49.406;19.484;2024-03-23T13:46:46;5.10;;;2.10;;
19951;SDS011;10137;49.406;19.484;2024-03-23T13:51:53;9.00;;;2.30;;
19951;SDS011;10137;49.406;19.484;2024-03-23T13:54:20;4.63;;;2.00;;
19951;SDS011;10137;49.406;19.484;2024-03-23T13:56:50;11.50;;;2.93;;
19951;SDS011;10137;49.406;19.484;2024-03-23T13:59:17;2.97;;;1.97;;
19951;SDS011;10137;49.406;19.484;2024-03-23T14:01:45;3.73;;;2.00;;
19951;SDS011;10137;49.406;19.484;2024-03-23T14:04:12;4.33;;;2.10;;
19951;SDS011;10137;49.406;19.484;2024-03-23T14:06:38;4.63;;;2.00;;
19951;SDS011;10137;49.406;19.484;2024-03-23T14:09:06;2.43;;;1.90;;
19951;SDS011;10137;49.406;19.484;2024-03-23T14:11:33;5.67;;;2.40;;
19951;SDS011;10137;49.406;19.484;2024-03-23T14:14:01;2.57;;;1.90;;
19951;SDS011;10137;49.406;19.484;2024-03-23T14:16:27;9.03;;;2.37;;
19951;SDS011;10137;49.406;19.484;2024-03-23T14:18:54;4.17;;;2.40;;
19951;SDS011;10137;49.406;19.484;2024-03-23T14:21:20;4.63;;;2.37;;
19951;SDS011;10137;49.406;19.484;2024-03-23T14:23:46;7.10;;;2.97;;
19951;SDS011;10137;49.406;19.484;2024-03-23T14:26:12;4.60;;;2.40;;
19951;SDS011;10137;49.406;19.484;2024-03-23T14:28:39;4.40;;;2.17;;
19951;SDS011;10137;49.406;19.484;2024-03-23T14:31:05;6.27;;;2.47;;
19951;SDS011;10137;49.406;19.484;2024-03-23T14:33:35;3.60;;;2.03;;
19951;SDS011;10137;49.406;19.484;2024-03-23T14:36:02;8.37;;;2.33;;
19951;SDS011;10137;49.406;19.484;2024-03-23T14:38:29;4.27;;;2.03;;
19951;SDS011;10137;49.406;19.484;2024-03-23T14:40:59;4.70;;;1.90;;
19951;SDS011;10137;49.406;19.484;2024-03-23T14:43:27;7.90;;;1.90;;
19951;SDS011;10137;49.406;19.484;2024-03-23T14:46:11;3.70;;;2.13;;
19951;SDS011;10137;49.406;19.484;2024-03-23T14:48:39;7.40;;;2.00;;
19951;SDS011;10137;49.406;19.484;2024-03-23T14:51:06;6.23;;;1.90;;
19951;SDS011;10137;49.406;19.484;2024-03-23T14:53:33;8.80;;;1.80;;
19951;SDS011;10137;49.406;19.484;2024-03-23T14:56:00;4.20;;;1.70;;
19951;SDS011;10137;49.406;19.484;2024-03-23T14:58:27;2.30;;;1.60;;
19951;SDS011;10137;49.406;19.484;2024-03-23T15:00:59;3.30;;;1.70;;
19951;SDS011;10137;49.406;19.484;2024-03-23T15:03:29;5.87;;;1.90;;
19951;SDS011;10137;49.406;19.484;2024-03-23T15:05:55;7.30;;;2.10;;
19951;SDS011;10137;49.406;19.484;2024-03-23T15:08:23;7.73;;;2.63;;
19951;SDS011;10137;49.406;19.484;2024-03-23T15:10:49;9.70;;;2.53;;
19951;SDS011;10137;49.406;19.484;2024-03-23T15:13:16;4.97;;;2.10;;
19951;SDS011;10137;49.406;19.484;2024-03-23T15:15:42;14.30;;;1.63;;
19951;SDS011;10137;49.406;19.484;2024-03-23T15:18:13;8.60;;;2.27;;
19951;SDS011;10137;49.406;19.484;2024-03-23T15:20:40;2.07;;;1.17;;
19951;SDS011;10137;49.406;19.484;2024-03-23T15:23:17;4.70;;;1.80;;
19951;SDS011;10137;49.406;19.484;2024-03-23T15:25:43;1.80;;;1.40;;
19951;SDS011;10137;49.406;19.484;2024-03-23T15:28:10;2.87;;;1.80;;
19951;SDS011;10137;49.406;19.484;2024-03-23T15:30:35;1.77;;;1.37;;
19951;SDS011;10137;49.406;19.484;2024-03-23T15:33:02;4.63;;;1.70;;
19951;SDS011;10137;49.406;19.484;2024-03-23T15:35:28;3.57;;;1.37;;
19951;SDS011;10137;49.406;19.484;2024-03-23T15:37:55;1.23;;;0.80;;
19951;SDS011;10137;49.406;19.484;2024-03-23T15:40:20;2.47;;;1.80;;